메인 페이지
METAR-TAF:

METAR-TAF

공항 :

요코타 비행장

Yokota, 일본

위도: 35-45N, 경도: 139-21E, 고도: 139m

현재 날씨관측

예보는 1 시간 22분 전, 23:04시(UTC)에 발표되었습니다.
북북서3kt
온도 19°C
습도 94%
기압 1010 hPa
시정: 16.1km
고도 700ft 상공 흐림
약한비

METAR: RJTY 212304Z AUTO 33003KT 10SM -RA OVC007 19/18 A2982 RMK AO2 RAB04 CIG 007V009 CIG 006 RWY18 SLP098 FZRANO $

시각: 09:26 (00:26 UTC)

예보

예보는 56분 전, 23:30시(UTC)에 발표되었습니다.
예보 대상 시간: 21일 23시부터 23일 03시까지 (UTC)
9kt
시정 10km 이상
고도 700ft 상공 흐림
전환 중
22일 03시부터 22일 04시까지 (UTC)
여러 방향의 바람 6kt
시정 10km 이상
고도 1500ft 상공 구름 보통
고도 8000ft 상공 구름 많음
전환 중
22일 06시부터 22일 07시까지 (UTC)
북북동6kt
시정 10km 이상
고도 5000ft 상공 구름 많음
고도 20000ft 상공 흐림
전환 중
22일 14시부터 22일 15시까지 (UTC)
6kt
시정: 8000m
고도 6000ft 상공 흐림
박무
전환 중
23일 00시부터 23일 01시까지 (UTC)
6kt
시정 10km 이상
고도 5000ft 상공 구름 많음

TAF: RJTY 212330Z 2123/2303 27009KT 9999 OVC007 QNH2979INS BECMG 2203/2204 VRB06KT 9999 SCT015 BKN080 QNH2979INS BECMG 2206/2207 02006KT 9999 BKN050 OVC200 QNH2981INS BECMG 2214/2215 36006KT 8000 BR OVC060 QNH2988INS BECMG 2300/2301 09006KT 9999 NSW BKN050 QNH2997INS TX22/2206Z TN15/2216Z

4,000개 이상의 공항 관측 자료 및 예보 (METAR 및 TAF 보고).

지도상에서 검색 가능한 기상관측소가 노란 점과 빨간 점으로 표시되어 있습니다.

기상관측소 명을 보려면 표시 위로 마우스를 이동하세요.

날씨 관측과 예보를 보려면 클릭하세요.

지도 변경 : 확대하려면 엑스 표시가 있는 녹색 버튼, 축소하려면 빼기 표시가 있는 녹색 버튼, 다음 페이지의 지도를 보려면 녹색 화살표를 클릭하세요.


METAR-TAF: